createdAt,value
2023-03-02T00:00:23.519Z,19.10
2023-03-02T00:03:13.488Z,12.80
2023-03-02T00:06:02.579Z,17.70
2023-03-02T00:08:52.452Z,14.50
2023-03-02T00:11:41.464Z,20.70
2023-03-02T00:14:32.972Z,11.60
2023-03-02T00:17:28.093Z,15.20
2023-03-02T00:20:18.617Z,15.50
2023-03-02T00:23:07.653Z,16.20
2023-03-02T00:25:58.256Z,17.90
2023-03-02T00:28:47.557Z,17.40
2023-03-02T00:31:38.086Z,17.10
2023-03-02T00:34:27.397Z,19.80
2023-03-02T00:37:16.391Z,13.10
2023-03-02T00:40:07.878Z,14.40
2023-03-02T00:42:56.944Z,19.10
2023-03-02T00:45:45.923Z,16.30
2023-03-02T00:48:34.972Z,14.80
2023-03-02T00:51:26.652Z,17.50
2023-03-02T00:54:15.895Z,16.50
2023-03-02T00:57:05.085Z,16.40
2023-03-02T00:59:54.246Z,16.40
2023-03-02T01:02:47.246Z,12.40
2023-03-02T01:05:38.182Z,9.80
2023-03-02T01:08:27.662Z,19.60
2023-03-02T01:11:18.656Z,12.20
2023-03-02T01:14:07.810Z,11.50
2023-03-02T01:16:56.851Z,15.50
2023-03-02T01:19:46.803Z,12.00
2023-03-02T01:22:36.106Z,9.50
2023-03-02T01:25:25.666Z,13.60
2023-03-02T01:28:15.199Z,12.50
2023-03-02T01:31:04.878Z,13.20
2023-03-02T01:33:54.110Z,11.10
2023-03-02T01:36:46.281Z,9.80
2023-03-02T01:39:35.949Z,12.70
2023-03-02T01:42:33.758Z,8.80
2023-03-02T01:45:53.562Z,11.40
2023-03-02T01:49:07.648Z,10.00
2023-03-02T01:52:13.842Z,13.10
2023-03-02T01:55:05.130Z,14.50
2023-03-02T01:57:54.182Z,11.90
2023-03-02T02:00:43.388Z,12.10
2023-03-02T02:03:33.107Z,12.80
2023-03-02T02:06:26.045Z,13.30
2023-03-02T02:12:13.760Z,7.70
2023-03-02T02:15:03.104Z,10.60
2023-03-02T02:17:54.481Z,9.60
2023-03-02T02:20:47.500Z,8.20
2023-03-02T02:23:59.924Z,10.70
2023-03-02T02:26:51.150Z,9.50
2023-03-02T02:29:46.569Z,9.40
2023-03-02T02:32:36.513Z,7.30
2023-03-02T02:35:27.451Z,10.60
2023-03-02T02:38:18.499Z,10.00
2023-03-02T02:41:08.639Z,8.00
2023-03-02T02:43:58.646Z,10.70
2023-03-02T02:46:49.305Z,9.50
2023-03-02T02:49:41.884Z,9.40
2023-03-02T02:52:31.706Z,11.10
2023-03-02T02:55:23.648Z,11.60
2023-03-02T02:58:28.476Z,9.30
2023-03-02T03:01:19.364Z,11.10
2023-03-02T03:04:10.689Z,13.60
2023-03-02T03:07:02.896Z,11.50
2023-03-02T03:10:35.193Z,9.40
2023-03-02T03:13:26.098Z,13.00
2023-03-02T03:16:16.379Z,10.30
2023-03-02T03:19:18.353Z,14.80
2023-03-02T03:22:08.488Z,13.20
2023-03-02T03:24:59.038Z,13.60
2023-03-02T03:27:48.817Z,15.20
2023-03-02T03:30:38.434Z,13.50
2023-03-02T03:33:30.525Z,14.20
2023-03-02T03:36:19.490Z,10.40
2023-03-02T03:39:09.268Z,11.70
2023-03-02T03:41:59.318Z,13.50
2023-03-02T03:44:48.806Z,15.80
2023-03-02T03:47:38.204Z,12.30
2023-03-02T03:50:27.929Z,9.80
2023-03-02T03:53:17.656Z,12.00
2023-03-02T03:56:07.526Z,15.40
2023-03-02T03:59:06.849Z,10.00
2023-03-02T04:02:03.897Z,13.20
2023-03-02T04:05:06.464Z,9.40
2023-03-02T04:07:55.529Z,16.90
2023-03-02T04:10:45.406Z,11.50
2023-03-02T04:13:34.757Z,10.90
2023-03-02T04:16:23.896Z,13.10
2023-03-02T04:19:17.768Z,11.20
2023-03-02T04:22:09.092Z,10.50
2023-03-02T04:25:02.111Z,15.20
2023-03-02T04:27:51.670Z,16.70
2023-03-02T04:30:44.878Z,15.50
2023-03-02T04:33:36.126Z,16.30
2023-03-02T04:36:26.558Z,12.20
2023-03-02T04:39:16.532Z,9.10
2023-03-02T04:42:11.106Z,11.60
2023-03-02T04:45:00.180Z,16.80
2023-03-02T04:47:54.366Z,12.00
2023-03-02T04:50:44.947Z,12.90
2023-03-02T04:53:33.911Z,16.20
2023-03-02T04:56:23.136Z,11.10
2023-03-02T04:59:12.171Z,13.50
2023-03-02T05:02:02.461Z,10.50
2023-03-02T05:04:51.647Z,8.20
2023-03-02T05:07:41.006Z,13.90
2023-03-02T05:10:32.584Z,14.50
2023-03-02T05:13:21.911Z,12.80
2023-03-02T05:16:11.262Z,10.40
2023-03-02T05:19:01.107Z,13.10
2023-03-02T05:21:50.223Z,13.20
2023-03-02T05:24:39.409Z,10.20
2023-03-02T05:27:28.363Z,10.20
2023-03-02T05:30:17.724Z,8.80
2023-03-02T05:33:06.819Z,7.90
2023-03-02T05:35:58.353Z,10.60
2023-03-02T05:38:47.735Z,11.30
2023-03-02T05:41:38.720Z,11.50
2023-03-02T05:44:27.781Z,14.50
2023-03-02T05:47:16.991Z,13.70
2023-03-02T05:50:06.628Z,14.60
2023-03-02T05:52:57.135Z,9.10
2023-03-02T05:55:46.276Z,13.90
2023-03-02T05:58:35.354Z,13.90
2023-03-02T06:01:27.065Z,13.90
2023-03-02T06:04:16.491Z,17.00
2023-03-02T06:07:05.854Z,15.50
2023-03-02T06:09:54.961Z,14.90
2023-03-02T06:12:44.306Z,14.40
2023-03-02T06:15:39.805Z,12.40
2023-03-02T06:18:29.697Z,11.80
2023-03-02T06:21:18.799Z,12.40
2023-03-02T06:24:08.538Z,7.80
2023-03-02T06:26:57.501Z,9.80
2023-03-02T06:29:46.550Z,11.70
2023-03-02T06:32:35.674Z,10.20
2023-03-02T06:35:24.876Z,9.40
2023-03-02T06:38:14.103Z,7.50
2023-03-02T06:41:04.498Z,9.60
2023-03-02T06:43:53.501Z,11.80
2023-03-02T06:46:43.894Z,14.60
2023-03-02T06:49:33.203Z,12.70
2023-03-02T06:52:22.476Z,9.90
2023-03-02T06:55:11.440Z,11.60
2023-03-02T06:58:01.620Z,9.20
2023-03-02T07:00:50.932Z,10.00
2023-03-02T07:03:40.540Z,9.60
2023-03-02T07:06:30.610Z,11.90
2023-03-02T07:09:19.550Z,11.20
2023-03-02T07:12:08.697Z,11.00
2023-03-02T07:14:57.847Z,14.20
2023-03-02T07:17:47.721Z,14.80
2023-03-02T07:20:36.925Z,10.50
2023-03-02T07:23:27.556Z,11.40
2023-03-02T07:26:16.548Z,11.10
2023-03-02T07:29:05.877Z,9.10
2023-03-02T07:31:57.387Z,9.30
2023-03-02T07:34:46.673Z,12.20
2023-03-02T07:37:35.709Z,9.40
2023-03-02T07:40:24.820Z,10.10
2023-03-02T07:43:13.909Z,11.40
2023-03-02T07:46:04.931Z,7.60
2023-03-02T07:48:54.137Z,11.70
2023-03-02T07:51:43.668Z,6.80
2023-03-02T07:54:33.708Z,9.50
2023-03-02T07:57:22.737Z,7.00
2023-03-02T08:00:12.175Z,5.60
2023-03-02T08:03:01.387Z,8.60
2023-03-02T08:05:52.517Z,6.00
2023-03-02T08:08:42.020Z,6.50
2023-03-02T08:11:31.636Z,9.90
2023-03-02T08:14:20.868Z,4.80
2023-03-02T08:17:09.821Z,4.20
2023-03-02T08:19:59.558Z,5.50
2023-03-02T08:22:48.643Z,7.20
2023-03-02T08:25:42.528Z,4.20
2023-03-02T08:28:31.521Z,7.60
2023-03-02T08:31:20.505Z,5.60
2023-03-02T08:34:09.794Z,3.00
2023-03-02T08:36:58.947Z,3.60
2023-03-02T08:39:48.563Z,9.30
2023-03-02T08:42:38.740Z,7.10
2023-03-02T08:45:28.343Z,5.70
2023-03-02T08:48:18.058Z,5.70
2023-03-02T08:51:13.311Z,5.60
2023-03-02T08:54:03.134Z,5.50
2023-03-02T08:56:52.271Z,7.50
2023-03-02T08:59:41.746Z,7.80
2023-03-02T09:02:31.002Z,5.80
2023-03-02T09:05:20.181Z,6.30
2023-03-02T09:08:10.481Z,4.80
2023-03-02T09:11:01.663Z,4.80
2023-03-02T09:13:50.906Z,4.90
2023-03-02T09:16:40.394Z,5.80
2023-03-02T09:19:29.610Z,7.30
2023-03-02T09:22:19.361Z,5.30
2023-03-02T09:25:09.426Z,5.50
2023-03-02T09:27:58.583Z,5.10
2023-03-02T09:30:57.953Z,7.20
2023-03-02T09:33:47.374Z,6.90
2023-03-02T09:36:38.068Z,5.50
2023-03-02T09:39:27.370Z,5.10
2023-03-02T09:42:43.101Z,5.50
2023-03-02T09:46:04.334Z,5.80
2023-03-02T09:48:53.644Z,4.40
2023-03-02T09:51:49.447Z,5.20
2023-03-02T09:54:38.259Z,6.10
2023-03-02T09:57:31.621Z,4.70
2023-03-02T10:00:29.855Z,6.90
2023-03-02T10:03:23.652Z,4.40
2023-03-02T10:06:12.834Z,6.40
2023-03-02T10:09:02.231Z,3.80
2023-03-02T10:11:57.069Z,6.20
2023-03-02T10:15:03.601Z,6.30
2023-03-02T10:17:56.217Z,8.20
2023-03-02T10:20:55.821Z,5.80
2023-03-02T10:24:05.319Z,5.50
2023-03-02T10:26:55.975Z,6.30
2023-03-02T10:29:55.899Z,9.70
2023-03-02T10:32:49.406Z,5.60
2023-03-02T10:35:39.514Z,6.00
2023-03-02T10:38:29.038Z,3.10
2023-03-02T10:41:36.564Z,3.10
2023-03-02T10:44:28.637Z,4.80
2023-03-02T10:47:28.140Z,3.10
2023-03-02T10:50:23.282Z,3.60
2023-03-02T10:53:18.078Z,7.40
2023-03-02T10:56:17.819Z,5.00
2023-03-02T10:59:31.909Z,4.50
2023-03-02T11:02:25.634Z,7.20
2023-03-02T11:05:28.560Z,5.60
2023-03-02T11:08:19.997Z,5.50
2023-03-02T11:11:23.564Z,6.10
2023-03-02T11:14:16.734Z,4.10
2023-03-02T11:17:27.559Z,4.20
2023-03-02T11:20:29.626Z,5.40
2023-03-02T11:23:24.054Z,5.20
2023-03-02T11:26:21.269Z,5.30
2023-03-02T11:29:31.263Z,6.90
2023-03-02T11:32:29.129Z,6.00
2023-03-02T11:35:43.086Z,9.00
2023-03-02T11:38:50.561Z,10.00
2023-03-02T11:41:41.456Z,5.10
2023-03-02T11:44:31.040Z,11.20
2023-03-02T11:47:20.690Z,6.70
2023-03-02T11:50:11.564Z,8.10
2023-03-02T11:53:03.930Z,36.00
2023-03-02T11:55:53.001Z,8.00
2023-03-02T11:58:43.622Z,7.80
2023-03-02T12:01:34.649Z,6.00
2023-03-02T12:04:28.397Z,4.50
2023-03-02T12:07:25.453Z,3.50
2023-03-02T12:10:28.439Z,5.90
2023-03-02T12:13:23.599Z,7.20
2023-03-02T12:16:38.699Z,5.50
2023-03-02T12:19:29.410Z,7.50
2023-03-02T12:22:29.623Z,3.30
2023-03-02T12:25:18.609Z,3.90
2023-03-02T12:28:31.124Z,7.50
2023-03-02T12:31:20.280Z,4.40
2023-03-02T12:34:39.410Z,6.50
2023-03-02T12:37:31.965Z,4.10
2023-03-02T12:40:42.557Z,2.60
2023-03-02T12:43:33.860Z,6.80
2023-03-02T12:46:27.137Z,4.90
2023-03-02T12:49:40.041Z,5.60
2023-03-02T12:55:20.955Z,4.50
2023-03-02T12:58:26.095Z,6.20
2023-03-02T13:01:20.819Z,3.50
2023-03-02T13:04:22.909Z,4.60
2023-03-02T13:07:19.547Z,2.30
2023-03-02T13:10:22.026Z,3.80
2023-03-02T13:13:22.242Z,8.10
2023-03-02T13:16:28.328Z,10.30
2023-03-02T13:19:17.414Z,4.80
2023-03-02T13:22:08.728Z,5.50
2023-03-02T13:25:05.617Z,5.30
2023-03-02T13:28:07.787Z,4.00
2023-03-02T13:31:02.038Z,5.10
2023-03-02T13:33:52.542Z,17.50
2023-03-02T13:36:41.519Z,29.10
2023-03-02T13:39:32.164Z,10.70
2023-03-02T13:42:47.923Z,9.20
2023-03-02T13:45:37.924Z,10.10
2023-03-02T13:48:30.370Z,7.90
2023-03-02T13:51:19.566Z,9.70
2023-03-02T13:54:25.093Z,4.10
2023-03-02T13:57:16.750Z,7.70
2023-03-02T14:00:16.229Z,5.00
2023-03-02T14:03:12.479Z,5.30
2023-03-02T14:06:01.880Z,4.30
2023-03-02T14:08:50.949Z,5.10
2023-03-02T14:11:51.404Z,6.20
2023-03-02T14:14:45.287Z,7.40
2023-03-02T14:17:35.048Z,3.80
2023-03-02T14:20:23.991Z,5.20
2023-03-02T14:23:13.261Z,9.00
2023-03-02T14:26:02.719Z,6.70
2023-03-02T14:29:04.700Z,12.00
2023-03-02T14:31:55.428Z,8.60
2023-03-02T14:34:44.037Z,9.30
2023-03-02T14:37:33.102Z,6.40
2023-03-02T14:40:27.526Z,10.70
2023-03-02T14:43:18.768Z,7.90
2023-03-02T14:46:12.174Z,8.40
2023-03-02T14:49:01.393Z,17.40
2023-03-02T14:52:03.592Z,11.50
2023-03-02T14:54:55.949Z,8.30
2023-03-02T14:57:44.700Z,10.70
2023-03-02T15:00:34.867Z,14.80
2023-03-02T15:03:25.888Z,19.40
2023-03-02T15:06:38.944Z,21.00
2023-03-02T15:12:17.659Z,17.10
2023-03-02T15:15:07.202Z,13.60
2023-03-02T15:17:56.168Z,13.00
2023-03-02T15:20:45.347Z,13.10
2023-03-02T15:23:35.431Z,15.00
2023-03-02T15:26:29.216Z,16.70
2023-03-02T15:29:19.227Z,15.10
2023-03-02T15:32:08.201Z,14.70
2023-03-02T15:34:57.859Z,11.90
2023-03-02T15:37:48.012Z,18.00
2023-03-02T15:40:37.668Z,19.20
2023-03-02T15:43:26.862Z,16.70
2023-03-02T15:46:15.884Z,42.20
2023-03-02T15:49:09.477Z,32.70
2023-03-02T15:51:58.628Z,26.60
2023-03-02T15:54:51.010Z,26.20
2023-03-02T15:57:41.013Z,16.60
2023-03-02T16:00:30.121Z,11.80
2023-03-02T16:03:22.990Z,50.80
2023-03-02T16:06:13.459Z,17.50
2023-03-02T16:09:03.105Z,9.00
2023-03-02T16:11:54.514Z,6.40
2023-03-02T16:14:44.413Z,6.90
2023-03-02T16:17:33.824Z,6.90
2023-03-02T16:20:22.917Z,3.80
2023-03-02T16:23:13.365Z,8.10
2023-03-02T16:26:10.164Z,9.60
2023-03-02T16:28:59.647Z,7.10
2023-03-02T16:31:48.888Z,3.90
2023-03-02T16:34:37.920Z,5.50
2023-03-02T16:37:27.037Z,10.90
2023-03-02T16:40:16.856Z,34.60
2023-03-02T16:43:10.911Z,20.60
2023-03-02T16:46:00.159Z,11.20
2023-03-02T16:48:49.479Z,18.50
2023-03-02T16:51:38.736Z,17.00
2023-03-02T16:54:28.191Z,21.30
2023-03-02T16:57:17.737Z,16.10
2023-03-02T17:00:08.595Z,10.20
2023-03-02T17:02:57.635Z,9.30
2023-03-02T17:05:48.933Z,8.70
2023-03-02T17:08:37.860Z,18.10
2023-03-02T17:11:32.706Z,14.00
2023-03-02T17:14:21.820Z,15.90
2023-03-02T17:17:11.049Z,14.60
2023-03-02T17:20:00.353Z,20.20
2023-03-02T17:22:49.433Z,17.50
2023-03-02T17:25:39.121Z,12.90
2023-03-02T17:28:28.566Z,12.30
2023-03-02T17:31:17.599Z,9.70
2023-03-02T17:34:11.434Z,9.30
2023-03-02T17:37:00.802Z,8.50
2023-03-02T17:39:51.022Z,5.70
2023-03-02T17:42:40.572Z,7.50
2023-03-02T17:45:29.776Z,6.70
2023-03-02T17:48:54.050Z,4.50
2023-03-02T17:51:43.546Z,3.80
2023-03-02T17:54:32.963Z,6.70
2023-03-02T17:57:23.178Z,10.00
2023-03-02T18:00:14.851Z,5.40
2023-03-02T18:05:55.870Z,5.90
2023-03-02T18:08:45.134Z,9.40
2023-03-02T18:11:35.006Z,8.10
2023-03-02T18:14:28.518Z,8.20
2023-03-02T18:17:20.188Z,10.00
2023-03-02T18:20:10.421Z,9.60
2023-03-02T18:23:03.036Z,5.90
2023-03-02T18:25:54.840Z,8.50
2023-03-02T18:28:44.203Z,13.10
2023-03-02T18:31:34.542Z,9.70
2023-03-02T18:34:24.175Z,13.20
2023-03-02T18:37:14.538Z,9.80
2023-03-02T18:40:07.104Z,10.50
2023-03-02T18:42:56.662Z,6.10
2023-03-02T18:45:46.132Z,8.50
2023-03-02T18:48:37.715Z,9.90
2023-03-02T18:51:27.550Z,9.70
2023-03-02T18:54:17.152Z,6.50
2023-03-02T18:57:07.571Z,8.80
2023-03-02T18:59:56.894Z,7.00
2023-03-02T19:02:46.288Z,9.60
2023-03-02T19:05:39.652Z,8.70
2023-03-02T19:09:15.316Z,9.90
2023-03-02T19:12:54.317Z,9.10
2023-03-02T19:16:29.003Z,11.70
2023-03-02T19:20:02.727Z,9.30
2023-03-02T19:23:36.286Z,6.90
2023-03-02T19:27:11.510Z,9.70
2023-03-02T19:30:45.114Z,7.90
2023-03-02T19:34:19.494Z,7.30
2023-03-02T19:37:55.077Z,7.20
2023-03-02T19:41:29.140Z,7.10
2023-03-02T19:45:03.504Z,8.90
2023-03-02T19:48:42.783Z,6.10
2023-03-02T19:52:16.221Z,6.30
2023-03-02T19:55:51.583Z,11.40
2023-03-02T19:59:51.130Z,10.00
2023-03-02T20:03:53.702Z,9.10
2023-03-02T20:07:54.345Z,7.50
2023-03-02T20:12:04.309Z,12.10
2023-03-02T20:16:03.235Z,8.40
2023-03-02T20:20:06.285Z,11.30
2023-03-02T20:24:06.054Z,9.30
2023-03-02T20:28:08.644Z,10.70
2023-03-02T20:32:07.220Z,15.10
2023-03-02T20:36:09.831Z,10.40
2023-03-02T20:40:09.257Z,13.70
2023-03-02T20:44:14.258Z,6.20
2023-03-02T20:48:14.327Z,8.80
2023-03-02T20:52:16.864Z,10.70
2023-03-02T20:56:16.114Z,9.30
2023-03-02T21:00:04.459Z,7.00
2023-03-02T21:03:52.415Z,10.60
2023-03-02T21:07:41.985Z,8.20
2023-03-02T21:11:27.931Z,9.80
2023-03-02T21:15:15.880Z,12.60
2023-03-02T21:19:03.362Z,8.50
2023-03-02T21:22:50.966Z,7.40
2023-03-02T21:26:38.792Z,13.90
2023-03-02T21:30:25.310Z,9.50
2023-03-02T21:34:12.979Z,12.20
2023-03-02T21:38:01.038Z,14.50
2023-03-02T21:41:48.507Z,9.60
2023-03-02T21:45:36.227Z,9.50
2023-03-02T21:49:23.818Z,17.10
2023-03-02T21:53:11.386Z,17.90
2023-03-02T21:57:01.536Z,13.70
2023-03-02T22:00:48.908Z,14.50
2023-03-02T22:04:36.397Z,14.70
2023-03-02T22:08:24.058Z,9.30
2023-03-02T22:12:11.909Z,8.40
2023-03-02T22:15:59.409Z,12.50
2023-03-02T22:19:50.479Z,8.30
2023-03-02T22:23:37.948Z,11.80
2023-03-02T22:27:25.469Z,11.20
2023-03-02T22:31:15.870Z,10.20
2023-03-02T22:35:06.074Z,10.60
2023-03-02T22:38:54.218Z,8.10
2023-03-02T22:42:40.250Z,6.80
2023-03-02T22:46:29.705Z,7.80
2023-03-02T22:50:16.085Z,9.10
2023-03-02T22:54:03.431Z,10.00
2023-03-02T22:57:49.468Z,22.30
2023-03-02T23:01:37.174Z,20.80
2023-03-02T23:05:23.056Z,15.80
2023-03-02T23:09:09.090Z,17.70
2023-03-02T23:12:55.162Z,17.80
2023-03-02T23:16:43.613Z,13.90
2023-03-02T23:20:38.509Z,14.10
2023-03-02T23:24:30.686Z,16.60
2023-03-02T23:28:26.692Z,14.20
2023-03-02T23:32:27.519Z,18.30
2023-03-02T23:36:27.685Z,21.50
2023-03-02T23:40:30.475Z,20.20
2023-03-02T23:44:32.601Z,24.30
2023-03-02T23:48:38.379Z,23.70
2023-03-02T23:52:35.939Z,26.00
2023-03-02T23:56:30.245Z,24.70
